Erie, PA (16506)

7:27 AM EST on December 03, 2016 (GMT -0500)
CARTER`S Lawn Care | | Change Station

Elev 836 ft 42.07 °N, 80.16 °W | Updated 5 seconds ago

Overcast
Overcast
41.4 °F
Feels Like 41 °F
N
0.0
Wind Variable Wind from West
Gusts 10.0 mph

Today
High -- | Low -- °F
--% Chance of Precip.
Yesterday
High -- | Low -- °F
Precip. -- in
Pressure 30.22 in
Visibility 10.0 miles
Clouds Mostly Cloudy 2100 ft
Overcast 2800 ft
Windchill 41 °F
Dew Point 37 °F
Humidity 84%
Rainfall 0.00 in
Snow Depth Not available.
7:31 AM 4:49 PM
Waxing Crescent, 14% visible
METAR KERI 031151Z 29010G17KT 10SM BKN021 OVC028 05/01 A3020 RMK AO2 SLP233 70012 T00500006 10056 20050 51012
Pressure 30.22 in
Visibility 10.0 miles
Clouds Mostly Cloudy 2100 ft
Overcast 2800 ft
Windchill 41 °F
Dew Point 37 °F
Humidity 84%
Rainfall 0.00 in
Snow Depth Not available.
7:31 AM 4:49 PM
Waxing Crescent, 14% visible
METAR KERI 031151Z 29010G17KT 10SM BKN021 OVC028 05/01 A3020 RMK AO2 SLP233 70012 T00500006 10056 20050 51012

10-Day Weather Forecast

Almanac

Astronomy

Dec. 03, 2016 Rise Set
Actual Time
Civil Twilight
Nautical Twilight
Astronomical Twilight
Moon
Length of Visible Light
Length of Day
Tomorrow will be .
, % of the Moon is Illuminated

Today's Extremes

State Highs State Lows

Community

WunderPhotos

Upload Photos

1,955,441 photos uploaded!

WunderBlog® & News

Nearby

Air Quality

  Air Quality AQ Index Pollutant
Not available.

Snow Depth

Station Depth Elevation

Earthquake Activity

City Distance Mag. Time & Date
Minimum magnitude displayed is 2.5.

Coastal Water Temperatures

Place Temperature

Stations

Nearby Weather Stations

Station Location Temp. Windchill Dew Point Humidity Wind Precip. Elev Updated Type
                   

Watches & Warnings

There are currently no watches in effect.